Terminal Aerodrome Forecast
Issued by NWS

Home | Current Version | Previous Version | Text Only | Print | Product List | Glossary On
Versions: 1 2 3 4 5 6 7 8 9 10 11 12 13 14 15 16
000
FTAK31 PAFA 240704 AAA
TAFAOT
TAF AMD
PAOT 240704Z 2407/2506 11020KT 2SM -SN BR OVC028
     FM241200 16010KT P6SM -SHSN SCT020 BKN040
     FM242100 16012KT 5SM -SHSN BKN015 OVC025=

USA.gov is the U.S. government's official web portal to all federal, state and local government web resources and services.